sensor_id;sensor_type;location;lat;lon;timestamp;temperature;humidity
9987;DHT22;5033;46.310;11.214;2022-09-03T00:01:37;19.90;99.90
9987;DHT22;5033;46.310;11.214;2022-09-03T00:04:11;19.90;99.90
9987;DHT22;5033;46.310;11.214;2022-09-03T00:06:48;19.90;99.90
9987;DHT22;5033;46.310;11.214;2022-09-03T00:09:23;19.90;99.90
9987;DHT22;5033;46.310;11.214;2022-09-03T00:11:57;20.00;99.90
9987;DHT22;5033;46.310;11.214;2022-09-03T00:14:31;20.00;99.90
9987;DHT22;5033;46.310;11.214;2022-09-03T00:17:02;20.00;99.90
9987;DHT22;5033;46.310;11.214;2022-09-03T00:19:34;20.00;99.90
9987;DHT22;5033;46.310;11.214;2022-09-03T00:22:10;19.90;99.90
9987;DHT22;5033;46.310;11.214;2022-09-03T00:24:41;19.90;99.90
9987;DHT22;5033;46.310;11.214;2022-09-03T00:27:15;19.80;99.90
9987;DHT22;5033;46.310;11.214;2022-09-03T00:29:48;19.80;99.90
9987;DHT22;5033;46.310;11.214;2022-09-03T00:32:20;19.80;99.90
9987;DHT22;5033;46.310;11.214;2022-09-03T00:34:56;19.90;99.90
9987;DHT22;5033;46.310;11.214;2022-09-03T00:37:28;19.80;99.90
9987;DHT22;5033;46.310;11.214;2022-09-03T00:39:55;19.80;99.90
9987;DHT22;5033;46.310;11.214;2022-09-03T00:42:37;19.80;99.90
9987;DHT22;5033;46.310;11.214;2022-09-03T00:45:15;19.80;99.90
9987;DHT22;5033;46.310;11.214;2022-09-03T00:47:56;19.80;99.90
9987;DHT22;5033;46.310;11.214;2022-09-03T00:50:37;19.80;99.90
9987;DHT22;5033;46.310;11.214;2022-09-03T00:53:13;19.80;99.90
9987;DHT22;5033;46.310;11.214;2022-09-03T00:55:48;19.70;99.90
9987;DHT22;5033;46.310;11.214;2022-09-03T00:58:37;19.70;99.90
9987;DHT22;5033;46.310;11.214;2022-09-03T01:01:15;19.70;99.90
9987;DHT22;5033;46.310;11.214;2022-09-03T01:03:52;19.70;99.90
9987;DHT22;5033;46.310;11.214;2022-09-03T01:06:26;19.70;99.90
9987;DHT22;5033;46.310;11.214;2022-09-03T01:09:06;19.70;99.90
9987;DHT22;5033;46.310;11.214;2022-09-03T01:11:41;19.70;99.90
9987;DHT22;5033;46.310;11.214;2022-09-03T01:14:21;19.60;99.90
9987;DHT22;5033;46.310;11.214;2022-09-03T01:17:03;19.60;99.90
9987;DHT22;5033;46.310;11.214;2022-09-03T01:19:53;19.60;99.90
9987;DHT22;5033;46.310;11.214;2022-09-03T01:22:38;19.60;99.90
9987;DHT22;5033;46.310;11.214;2022-09-03T01:25:21;19.50;99.90
9987;DHT22;5033;46.310;11.214;2022-09-03T01:28:07;19.50;99.90
9987;DHT22;5033;46.310;11.214;2022-09-03T01:30:41;19.60;99.90
9987;DHT22;5033;46.310;11.214;2022-09-03T01:33:18;19.60;99.90
9987;DHT22;5033;46.310;11.214;2022-09-03T01:35:48;19.60;99.90
9987;DHT22;5033;46.310;11.214;2022-09-03T01:38:26;19.70;99.90
9987;DHT22;5033;46.310;11.214;2022-09-03T01:41:05;19.60;99.90
9987;DHT22;5033;46.310;11.214;2022-09-03T01:43:57;19.60;99.90
9987;DHT22;5033;46.310;11.214;2022-09-03T01:46:33;19.60;99.90
9987;DHT22;5033;46.310;11.214;2022-09-03T01:49:08;19.60;99.90
9987;DHT22;5033;46.310;11.214;2022-09-03T01:51:40;19.60;99.90
9987;DHT22;5033;46.310;11.214;2022-09-03T01:54:50;19.50;99.90
9987;DHT22;5033;46.310;11.214;2022-09-03T01:57:40;19.50;99.90
9987;DHT22;5033;46.310;11.214;2022-09-03T02:00:13;19.40;99.90
9987;DHT22;5033;46.310;11.214;2022-09-03T02:03:16;19.50;99.90
9987;DHT22;5033;46.310;11.214;2022-09-03T02:06:41;19.60;99.90
9987;DHT22;5033;46.310;11.214;2022-09-03T02:09:42;19.60;99.90
9987;DHT22;5033;46.310;11.214;2022-09-03T02:12:28;19.60;99.90
9987;DHT22;5033;46.310;11.214;2022-09-03T02:15:43;19.60;99.90
9987;DHT22;5033;46.310;11.214;2022-09-03T02:18:45;19.50;99.90
9987;DHT22;5033;46.310;11.214;2022-09-03T02:24:46;19.50;99.90
9987;DHT22;5033;46.310;11.214;2022-09-03T02:27:58;19.50;99.90
9987;DHT22;5033;46.310;11.214;2022-09-03T05:05:36;19.10;99.90
9987;DHT22;5033;46.310;11.214;2022-09-03T05:08:36;19.10;99.90
9987;DHT22;5033;46.310;11.214;2022-09-03T06:20:21;19.40;99.90
9987;DHT22;5033;46.310;11.214;2022-09-03T06:22:53;19.30;99.90
9987;DHT22;5033;46.310;11.214;2022-09-03T06:25:21;19.20;99.90
9987;DHT22;5033;46.310;11.214;2022-09-03T06:27:48;19.20;99.90
9987;DHT22;5033;46.310;11.214;2022-09-03T06:30:15;19.20;99.90
9987;DHT22;5033;46.310;11.214;2022-09-03T06:32:43;19.20;99.90
9987;DHT22;5033;46.310;11.214;2022-09-03T06:35:10;19.30;99.90
9987;DHT22;5033;46.310;11.214;2022-09-03T06:37:39;19.30;99.90
9987;DHT22;5033;46.310;11.214;2022-09-03T06:40:08;19.30;99.90
9987;DHT22;5033;46.310;11.214;2022-09-03T06:42:37;19.30;99.90
9987;DHT22;5033;46.310;11.214;2022-09-03T06:45:05;19.40;99.90
9987;DHT22;5033;46.310;11.214;2022-09-03T06:47:32;19.40;99.90
9987;DHT22;5033;46.310;11.214;2022-09-03T06:49:59;19.40;99.90
9987;DHT22;5033;46.310;11.214;2022-09-03T06:52:27;19.50;99.90
9987;DHT22;5033;46.310;11.214;2022-09-03T06:54:55;19.60;99.90
9987;DHT22;5033;46.310;11.214;2022-09-03T06:57:22;19.60;99.90
9987;DHT22;5033;46.310;11.214;2022-09-03T06:59:49;19.70;99.90
9987;DHT22;5033;46.310;11.214;2022-09-03T07:02:19;19.80;99.90
9987;DHT22;5033;46.310;11.214;2022-09-03T07:04:47;19.80;99.90
9987;DHT22;5033;46.310;11.214;2022-09-03T07:07:15;19.90;99.90
9987;DHT22;5033;46.310;11.214;2022-09-03T07:09:42;20.00;99.90
9987;DHT22;5033;46.310;11.214;2022-09-03T07:12:10;20.10;99.90
9987;DHT22;5033;46.310;11.214;2022-09-03T07:14:40;20.10;99.90
9987;DHT22;5033;46.310;11.214;2022-09-03T07:17:07;20.20;99.90
9987;DHT22;5033;46.310;11.214;2022-09-03T07:19:34;20.10;99.90
9987;DHT22;5033;46.310;11.214;2022-09-03T07:22:01;20.10;99.90
9987;DHT22;5033;46.310;11.214;2022-09-03T07:24:28;20.10;99.90
9987;DHT22;5033;46.310;11.214;2022-09-03T07:26:55;20.10;99.90
9987;DHT22;5033;46.310;11.214;2022-09-03T07:29:24;20.20;99.90
9987;DHT22;5033;46.310;11.214;2022-09-03T07:31:52;20.30;99.90
9987;DHT22;5033;46.310;11.214;2022-09-03T07:34:19;20.30;99.90
9987;DHT22;5033;46.310;11.214;2022-09-03T07:36:48;20.30;99.90
9987;DHT22;5033;46.310;11.214;2022-09-03T07:39:16;20.40;99.90
9987;DHT22;5033;46.310;11.214;2022-09-03T07:41:44;20.40;99.90
9987;DHT22;5033;46.310;11.214;2022-09-03T07:44:12;20.40;99.90
9987;DHT22;5033;46.310;11.214;2022-09-03T07:46:41;20.70;99.90
9987;DHT22;5033;46.310;11.214;2022-09-03T07:49:10;20.80;99.90
9987;DHT22;5033;46.310;11.214;2022-09-03T07:51:38;20.80;99.90
9987;DHT22;5033;46.310;11.214;2022-09-03T07:54:06;20.90;99.90
9987;DHT22;5033;46.310;11.214;2022-09-03T07:56:35;21.00;99.90
9987;DHT22;5033;46.310;11.214;2022-09-03T07:59:04;21.10;99.90
9987;DHT22;5033;46.310;11.214;2022-09-03T08:01:32;21.10;99.90
9987;DHT22;5033;46.310;11.214;2022-09-03T08:04:01;21.30;99.90
9987;DHT22;5033;46.310;11.214;2022-09-03T08:06:32;21.50;99.90
9987;DHT22;5033;46.310;11.214;2022-09-03T08:09:01;21.60;99.90
9987;DHT22;5033;46.310;11.214;2022-09-03T08:11:29;21.60;99.90
9987;DHT22;5033;46.310;11.214;2022-09-03T08:13:57;21.60;99.90
9987;DHT22;5033;46.310;11.214;2022-09-03T08:16:27;21.90;99.90
9987;DHT22;5033;46.310;11.214;2022-09-03T08:18:54;22.50;99.90
9987;DHT22;5033;46.310;11.214;2022-09-03T08:21:24;23.00;99.90
9987;DHT22;5033;46.310;11.214;2022-09-03T08:23:53;23.50;99.90
9987;DHT22;5033;46.310;11.214;2022-09-03T08:26:27;24.00;99.90
9987;DHT22;5033;46.310;11.214;2022-09-03T08:28:55;24.40;99.90
9987;DHT22;5033;46.310;11.214;2022-09-03T08:31:22;24.60;99.90
9987;DHT22;5033;46.310;11.214;2022-09-03T08:33:50;24.70;99.90
9987;DHT22;5033;46.310;11.214;2022-09-03T08:36:19;24.70;99.90
9987;DHT22;5033;46.310;11.214;2022-09-03T08:38:52;24.80;99.90
9987;DHT22;5033;46.310;11.214;2022-09-03T08:41:27;24.70;99.90
9987;DHT22;5033;46.310;11.214;2022-09-03T08:44:16;24.10;99.90
9987;DHT22;5033;46.310;11.214;2022-09-03T08:46:50;23.50;99.90
9987;DHT22;5033;46.310;11.214;2022-09-03T08:49:23;23.00;99.90
9987;DHT22;5033;46.310;11.214;2022-09-03T08:51:54;22.80;99.90
9987;DHT22;5033;46.310;11.214;2022-09-03T08:54:26;22.70;99.90
9987;DHT22;5033;46.310;11.214;2022-09-03T08:56:59;22.50;99.90
9987;DHT22;5033;46.310;11.214;2022-09-03T08:59:26;22.50;99.90
9987;DHT22;5033;46.310;11.214;2022-09-03T09:01:57;22.30;99.90
9987;DHT22;5033;46.310;11.214;2022-09-03T09:04:34;22.30;99.90
9987;DHT22;5033;46.310;11.214;2022-09-03T09:07:10;22.40;99.90
9987;DHT22;5033;46.310;11.214;2022-09-03T09:09:46;22.40;99.90
9987;DHT22;5033;46.310;11.214;2022-09-03T09:12:25;22.40;99.90
9987;DHT22;5033;46.310;11.214;2022-09-03T09:15:05;22.50;99.90
9987;DHT22;5033;46.310;11.214;2022-09-03T09:17:51;22.60;99.90
9987;DHT22;5033;46.310;11.214;2022-09-03T09:20:26;22.60;99.90
9987;DHT22;5033;46.310;11.214;2022-09-03T09:23:02;22.50;99.90
9987;DHT22;5033;46.310;11.214;2022-09-03T09:25:33;22.40;99.90
9987;DHT22;5033;46.310;11.214;2022-09-03T09:28:15;22.30;99.90
9987;DHT22;5033;46.310;11.214;2022-09-03T09:30:44;22.40;99.90
9987;DHT22;5033;46.310;11.214;2022-09-03T09:33:12;22.60;99.90
9987;DHT22;5033;46.310;11.214;2022-09-03T09:35:40;22.80;99.90
9987;DHT22;5033;46.310;11.214;2022-09-03T09:38:08;23.10;99.90
9987;DHT22;5033;46.310;11.214;2022-09-03T09:40:39;23.10;99.90
9987;DHT22;5033;46.310;11.214;2022-09-03T09:43:10;23.20;99.90
9987;DHT22;5033;46.310;11.214;2022-09-03T09:45:38;23.20;99.90
9987;DHT22;5033;46.310;11.214;2022-09-03T09:48:19;23.00;99.90
9987;DHT22;5033;46.310;11.214;2022-09-03T09:50:46;22.90;99.90
9987;DHT22;5033;46.310;11.214;2022-09-03T09:53:17;22.60;99.90
9987;DHT22;5033;46.310;11.214;2022-09-03T09:55:52;22.50;99.90
9987;DHT22;5033;46.310;11.214;2022-09-03T09:58:21;22.30;99.90
9987;DHT22;5033;46.310;11.214;2022-09-03T10:01:04;22.30;99.90
9987;DHT22;5033;46.310;11.214;2022-09-03T10:03:47;22.30;99.90
9987;DHT22;5033;46.310;11.214;2022-09-03T10:06:15;22.30;99.90
9987;DHT22;5033;46.310;11.214;2022-09-03T10:09:07;22.30;99.90
9987;DHT22;5033;46.310;11.214;2022-09-03T10:11:37;22.60;99.90
9987;DHT22;5033;46.310;11.214;2022-09-03T10:14:12;22.70;99.90
9987;DHT22;5033;46.310;11.214;2022-09-03T10:16:46;22.70;99.90
9987;DHT22;5033;46.310;11.214;2022-09-03T10:19:19;22.60;99.90
9987;DHT22;5033;46.310;11.214;2022-09-03T10:21:52;22.60;99.90
9987;DHT22;5033;46.310;11.214;2022-09-03T10:24:37;22.60;99.90
9987;DHT22;5033;46.310;11.214;2022-09-03T10:27:09;22.60;99.90
9987;DHT22;5033;46.310;11.214;2022-09-03T10:29:39;22.60;99.90
9987;DHT22;5033;46.310;11.214;2022-09-03T10:32:18;22.60;99.90
9987;DHT22;5033;46.310;11.214;2022-09-03T10:34:54;22.50;99.90
9987;DHT22;5033;46.310;11.214;2022-09-03T10:37:32;22.50;99.90
9987;DHT22;5033;46.310;11.214;2022-09-03T10:40:15;22.50;99.90
9987;DHT22;5033;46.310;11.214;2022-09-03T10:42:53;22.40;99.90
9987;DHT22;5033;46.310;11.214;2022-09-03T10:45:32;22.40;99.90
9987;DHT22;5033;46.310;11.214;2022-09-03T10:48:19;22.40;99.90
9987;DHT22;5033;46.310;11.214;2022-09-03T10:50:54;22.30;99.90
9987;DHT22;5033;46.310;11.214;2022-09-03T10:53:46;22.30;99.90
9987;DHT22;5033;46.310;11.214;2022-09-03T10:56:21;22.30;99.90
9987;DHT22;5033;46.310;11.214;2022-09-03T10:59:05;22.30;99.90
9987;DHT22;5033;46.310;11.214;2022-09-03T11:01:40;22.40;99.90
9987;DHT22;5033;46.310;11.214;2022-09-03T11:04:20;22.40;99.90
9987;DHT22;5033;46.310;11.214;2022-09-03T11:06:54;22.30;99.90
9987;DHT22;5033;46.310;11.214;2022-09-03T11:09:26;22.20;99.90
9987;DHT22;5033;46.310;11.214;2022-09-03T11:11:58;22.20;99.90
9987;DHT22;5033;46.310;11.214;2022-09-03T11:14:34;22.20;99.90
9987;DHT22;5033;46.310;11.214;2022-09-03T11:17:07;22.20;99.90
9987;DHT22;5033;46.310;11.214;2022-09-03T11:19:40;22.20;99.90
9987;DHT22;5033;46.310;11.214;2022-09-03T11:22:11;22.20;99.90
9987;DHT22;5033;46.310;11.214;2022-09-03T11:24:41;22.30;99.90
9987;DHT22;5033;46.310;11.214;2022-09-03T11:27:19;22.30;99.90
9987;DHT22;5033;46.310;11.214;2022-09-03T11:29:54;22.30;99.90
9987;DHT22;5033;46.310;11.214;2022-09-03T11:32:31;22.30;99.90
9987;DHT22;5033;46.310;11.214;2022-09-03T11:35:00;22.40;99.90
9987;DHT22;5033;46.310;11.214;2022-09-03T11:37:28;22.40;99.90
9987;DHT22;5033;46.310;11.214;2022-09-03T11:39:58;22.40;99.90
9987;DHT22;5033;46.310;11.214;2022-09-03T11:42:31;22.40;99.90
9987;DHT22;5033;46.310;11.214;2022-09-03T11:45:14;22.50;99.90
9987;DHT22;5033;46.310;11.214;2022-09-03T11:47:46;22.50;99.90
9987;DHT22;5033;46.310;11.214;2022-09-03T11:50:22;22.60;99.90
9987;DHT22;5033;46.310;11.214;2022-09-03T11:52:51;22.70;99.90
9987;DHT22;5033;46.310;11.214;2022-09-03T11:55:26;22.70;99.90
9987;DHT22;5033;46.310;11.214;2022-09-03T11:57:57;22.90;99.90
9987;DHT22;5033;46.310;11.214;2022-09-03T12:00:26;23.10;99.90
9987;DHT22;5033;46.310;11.214;2022-09-03T12:02:56;23.30;99.90
9987;DHT22;5033;46.310;11.214;2022-09-03T12:05:30;23.50;99.90
9987;DHT22;5033;46.310;11.214;2022-09-03T12:08:24;23.70;99.90
9987;DHT22;5033;46.310;11.214;2022-09-03T12:11:05;23.80;99.90
9987;DHT22;5033;46.310;11.214;2022-09-03T12:13:48;23.90;99.90
9987;DHT22;5033;46.310;11.214;2022-09-03T12:16:29;24.00;99.90
9987;DHT22;5033;46.310;11.214;2022-09-03T12:19:03;24.20;99.90
9987;DHT22;5033;46.310;11.214;2022-09-03T12:21:37;24.30;99.90
9987;DHT22;5033;46.310;11.214;2022-09-03T12:24:07;24.40;99.90
9987;DHT22;5033;46.310;11.214;2022-09-03T12:26:39;24.70;99.90
9987;DHT22;5033;46.310;11.214;2022-09-03T12:29:20;25.20;99.90
9987;DHT22;5033;46.310;11.214;2022-09-03T12:31:49;25.30;99.90
9987;DHT22;5033;46.310;11.214;2022-09-03T12:34:18;25.10;99.90
9987;DHT22;5033;46.310;11.214;2022-09-03T12:36:48;24.90;99.90
9987;DHT22;5033;46.310;11.214;2022-09-03T12:39:17;24.80;99.90
9987;DHT22;5033;46.310;11.214;2022-09-03T12:41:54;24.80;99.90
9987;DHT22;5033;46.310;11.214;2022-09-03T12:44:24;25.00;99.90
9987;DHT22;5033;46.310;11.214;2022-09-03T12:47:06;25.10;99.90
9987;DHT22;5033;46.310;11.214;2022-09-03T12:49:36;25.20;99.90
9987;DHT22;5033;46.310;11.214;2022-09-03T12:52:10;25.30;99.90
9987;DHT22;5033;46.310;11.214;2022-09-03T12:54:43;25.50;99.90
9987;DHT22;5033;46.310;11.214;2022-09-03T12:57:15;26.00;99.90
9987;DHT22;5033;46.310;11.214;2022-09-03T12:59:46;26.30;99.90
9987;DHT22;5033;46.310;11.214;2022-09-03T13:02:20;26.70;99.90
9987;DHT22;5033;46.310;11.214;2022-09-03T13:04:49;26.70;99.90
9987;DHT22;5033;46.310;11.214;2022-09-03T13:07:23;26.70;99.90
9987;DHT22;5033;46.310;11.214;2022-09-03T13:09:58;26.90;99.90
9987;DHT22;5033;46.310;11.214;2022-09-03T13:12:31;27.10;99.90
9987;DHT22;5033;46.310;11.214;2022-09-03T13:15:04;27.30;99.90
9987;DHT22;5033;46.310;11.214;2022-09-03T13:18:05;27.20;99.90
9987;DHT22;5033;46.310;11.214;2022-09-03T13:20:41;27.20;99.90
9987;DHT22;5033;46.310;11.214;2022-09-03T13:23:38;27.40;99.90
9987;DHT22;5033;46.310;11.214;2022-09-03T13:26:17;27.30;99.90
9987;DHT22;5033;46.310;11.214;2022-09-03T13:28:56;27.10;99.90
9987;DHT22;5033;46.310;11.214;2022-09-03T13:31:30;27.20;99.90
9987;DHT22;5033;46.310;11.214;2022-09-03T13:34:04;27.50;99.90
9987;DHT22;5033;46.310;11.214;2022-09-03T13:36:40;27.60;99.90
9987;DHT22;5033;46.310;11.214;2022-09-03T13:39:19;27.60;99.90
9987;DHT22;5033;46.310;11.214;2022-09-03T13:41:49;27.70;99.90
9987;DHT22;5033;46.310;11.214;2022-09-03T13:44:23;27.80;99.90
9987;DHT22;5033;46.310;11.214;2022-09-03T13:47:01;27.40;99.90
9987;DHT22;5033;46.310;11.214;2022-09-03T13:49:39;27.10;99.90
9987;DHT22;5033;46.310;11.214;2022-09-03T13:52:31;27.20;99.90
9987;DHT22;5033;46.310;11.214;2022-09-03T13:55:06;27.00;99.90
9987;DHT22;5033;46.310;11.214;2022-09-03T13:57:38;27.00;99.90
9987;DHT22;5033;46.310;11.214;2022-09-03T14:00:09;27.10;99.90
9987;DHT22;5033;46.310;11.214;2022-09-03T14:02:45;27.10;99.90
9987;DHT22;5033;46.310;11.214;2022-09-03T14:05:22;27.30;99.90
9987;DHT22;5033;46.310;11.214;2022-09-03T14:08:00;27.30;99.90
9987;DHT22;5033;46.310;11.214;2022-09-03T14:10:43;27.40;99.90
9987;DHT22;5033;46.310;11.214;2022-09-03T14:13:18;27.30;99.90
9987;DHT22;5033;46.310;11.214;2022-09-03T14:15:49;26.80;99.90
9987;DHT22;5033;46.310;11.214;2022-09-03T14:18:32;26.40;99.90
9987;DHT22;5033;46.310;11.214;2022-09-03T14:21:06;26.20;99.90
9987;DHT22;5033;46.310;11.214;2022-09-03T14:23:41;26.10;99.90
9987;DHT22;5033;46.310;11.214;2022-09-03T14:26:16;26.00;99.90
9987;DHT22;5033;46.310;11.214;2022-09-03T14:28:47;25.90;99.90
9987;DHT22;5033;46.310;11.214;2022-09-03T14:31:22;26.00;99.90
9987;DHT22;5033;46.310;11.214;2022-09-03T14:33:57;26.10;99.90
9987;DHT22;5033;46.310;11.214;2022-09-03T14:36:33;26.40;99.90
9987;DHT22;5033;46.310;11.214;2022-09-03T14:39:22;26.30;99.90
9987;DHT22;5033;46.310;11.214;2022-09-03T14:42:12;26.00;99.90
9987;DHT22;5033;46.310;11.214;2022-09-03T14:45:04;25.90;99.90
9987;DHT22;5033;46.310;11.214;2022-09-03T14:47:49;25.90;99.90
9987;DHT22;5033;46.310;11.214;2022-09-03T14:50:37;25.80;99.90
9987;DHT22;5033;46.310;11.214;2022-09-03T14:53:25;25.60;99.90
9987;DHT22;5033;46.310;11.214;2022-09-03T14:56:12;25.50;99.90
9987;DHT22;5033;46.310;11.214;2022-09-03T14:58:59;25.30;99.90
9987;DHT22;5033;46.310;11.214;2022-09-03T15:01:32;25.00;99.90
9987;DHT22;5033;46.310;11.214;2022-09-03T15:04:31;25.00;99.90
9987;DHT22;5033;46.310;11.214;2022-09-03T15:07:27;24.90;99.90
9987;DHT22;5033;46.310;11.214;2022-09-03T15:10:03;24.80;99.90
9987;DHT22;5033;46.310;11.214;2022-09-03T15:12:36;24.60;99.90
9987;DHT22;5033;46.310;11.214;2022-09-03T15:15:09;24.50;99.90
9987;DHT22;5033;46.310;11.214;2022-09-03T15:18:03;24.40;99.90
9987;DHT22;5033;46.310;11.214;2022-09-03T15:20:48;24.40;99.90
9987;DHT22;5033;46.310;11.214;2022-09-03T15:23:22;24.20;99.90
9987;DHT22;5033;46.310;11.214;2022-09-03T15:26:04;24.10;99.90
9987;DHT22;5033;46.310;11.214;2022-09-03T15:28:44;24.10;99.90
9987;DHT22;5033;46.310;11.214;2022-09-03T15:31:20;24.00;99.90
9987;DHT22;5033;46.310;11.214;2022-09-03T15:33:53;24.00;99.90
9987;DHT22;5033;46.310;11.214;2022-09-03T15:36:25;24.00;99.90
9987;DHT22;5033;46.310;11.214;2022-09-03T15:38:55;23.90;99.90
9987;DHT22;5033;46.310;11.214;2022-09-03T15:41:34;23.80;99.90
9987;DHT22;5033;46.310;11.214;2022-09-03T15:44:07;23.80;99.90
9987;DHT22;5033;46.310;11.214;2022-09-03T15:46:47;23.70;99.90
9987;DHT22;5033;46.310;11.214;2022-09-03T15:49:25;23.60;99.90
9987;DHT22;5033;46.310;11.214;2022-09-03T15:52:07;23.60;99.90
9987;DHT22;5033;46.310;11.214;2022-09-03T15:54:41;23.60;99.90
9987;DHT22;5033;46.310;11.214;2022-09-03T15:57:14;23.50;99.90
9987;DHT22;5033;46.310;11.214;2022-09-03T15:59:51;23.50;99.90
9987;DHT22;5033;46.310;11.214;2022-09-03T16:02:26;23.40;99.90
9987;DHT22;5033;46.310;11.214;2022-09-03T16:05:04;23.40;99.90
9987;DHT22;5033;46.310;11.214;2022-09-03T16:07:53;23.40;99.90
9987;DHT22;5033;46.310;11.214;2022-09-03T16:10:36;23.40;99.90
9987;DHT22;5033;46.310;11.214;2022-09-03T16:13:23;23.30;99.90
9987;DHT22;5033;46.310;11.214;2022-09-03T16:15:59;23.30;99.90
9987;DHT22;5033;46.310;11.214;2022-09-03T16:18:31;23.30;99.90
9987;DHT22;5033;46.310;11.214;2022-09-03T16:21:03;23.30;99.90
9987;DHT22;5033;46.310;11.214;2022-09-03T16:23:37;23.30;99.90
9987;DHT22;5033;46.310;11.214;2022-09-03T16:26:08;23.30;99.90
9987;DHT22;5033;46.310;11.214;2022-09-03T16:28:42;23.30;99.90
9987;DHT22;5033;46.310;11.214;2022-09-03T16:31:18;23.20;99.90
9987;DHT22;5033;46.310;11.214;2022-09-03T16:33:56;23.20;99.90
9987;DHT22;5033;46.310;11.214;2022-09-03T16:36:35;23.20;99.90
9987;DHT22;5033;46.310;11.214;2022-09-03T16:39:10;23.20;99.90
9987;DHT22;5033;46.310;11.214;2022-09-03T16:41:45;23.30;99.90
9987;DHT22;5033;46.310;11.214;2022-09-03T16:44:19;23.30;99.90
9987;DHT22;5033;46.310;11.214;2022-09-03T16:46:54;23.20;99.90
9987;DHT22;5033;46.310;11.214;2022-09-03T16:49:39;23.20;99.90
9987;DHT22;5033;46.310;11.214;2022-09-03T16:52:18;23.20;99.90
9987;DHT22;5033;46.310;11.214;2022-09-03T16:55:00;23.20;99.90
9987;DHT22;5033;46.310;11.214;2022-09-03T16:57:42;23.20;99.90
9987;DHT22;5033;46.310;11.214;2022-09-03T17:00:16;23.20;99.90
9987;DHT22;5033;46.310;11.214;2022-09-03T17:03:03;23.20;99.90
9987;DHT22;5033;46.310;11.214;2022-09-03T17:08:38;23.10;99.90
9987;DHT22;5033;46.310;11.214;2022-09-03T17:11:17;23.10;99.90
9987;DHT22;5033;46.310;11.214;2022-09-03T17:13:58;23.10;99.90
9987;DHT22;5033;46.310;11.214;2022-09-03T17:16:42;23.10;99.90
9987;DHT22;5033;46.310;11.214;2022-09-03T17:35:32;22.90;99.90
9987;DHT22;5033;46.310;11.214;2022-09-03T17:38:14;22.90;99.90
9987;DHT22;5033;46.310;11.214;2022-09-03T17:40:55;22.80;99.90
9987;DHT22;5033;46.310;11.214;2022-09-03T17:43:30;22.80;99.90
9987;DHT22;5033;46.310;11.214;2022-09-03T17:46:14;22.80;99.90
9987;DHT22;5033;46.310;11.214;2022-09-03T17:48:51;22.70;99.90
9987;DHT22;5033;46.310;11.214;2022-09-03T17:51:32;22.70;99.90
9987;DHT22;5033;46.310;11.214;2022-09-03T17:54:06;22.60;99.90
9987;DHT22;5033;46.310;11.214;2022-09-03T17:56:46;22.60;99.90
9987;DHT22;5033;46.310;11.214;2022-09-03T17:59:20;22.50;99.90
9987;DHT22;5033;46.310;11.214;2022-09-03T18:01:53;22.50;99.90
9987;DHT22;5033;46.310;11.214;2022-09-03T18:04:33;22.50;99.90
9987;DHT22;5033;46.310;11.214;2022-09-03T18:07:10;22.50;99.90
9987;DHT22;5033;46.310;11.214;2022-09-03T18:09:47;22.40;99.90
9987;DHT22;5033;46.310;11.214;2022-09-03T18:12:28;22.50;99.90
9987;DHT22;5033;46.310;11.214;2022-09-03T18:15:03;22.50;99.90
9987;DHT22;5033;46.310;11.214;2022-09-03T18:17:38;22.40;99.90
9987;DHT22;5033;46.310;11.214;2022-09-03T18:20:09;22.40;99.90
9987;DHT22;5033;46.310;11.214;2022-09-03T18:23:00;22.40;99.90
9987;DHT22;5033;46.310;11.214;2022-09-03T18:25:49;22.40;99.90
9987;DHT22;5033;46.310;11.214;2022-09-03T18:28:37;22.40;99.90
9987;DHT22;5033;46.310;11.214;2022-09-03T18:31:23;22.40;99.90
9987;DHT22;5033;46.310;11.214;2022-09-03T18:34:08;22.40;99.90
9987;DHT22;5033;46.310;11.214;2022-09-03T18:36:56;22.40;99.90
9987;DHT22;5033;46.310;11.214;2022-09-03T18:39:44;22.30;99.90
9987;DHT22;5033;46.310;11.214;2022-09-03T18:42:38;22.30;99.90
9987;DHT22;5033;46.310;11.214;2022-09-03T18:45:34;22.30;99.90
9987;DHT22;5033;46.310;11.214;2022-09-03T18:48:25;22.30;99.90
9987;DHT22;5033;46.310;11.214;2022-09-03T18:51:20;22.20;99.90
9987;DHT22;5033;46.310;11.214;2022-09-03T18:54:16;22.10;99.90
9987;DHT22;5033;46.310;11.214;2022-09-03T18:57:10;22.10;99.90
9987;DHT22;5033;46.310;11.214;2022-09-03T19:00:08;22.00;99.90
9987;DHT22;5033;46.310;11.214;2022-09-03T19:03:09;22.10;99.90
9987;DHT22;5033;46.310;11.214;2022-09-03T19:06:04;22.00;99.90
9987;DHT22;5033;46.310;11.214;2022-09-03T19:08:59;22.00;99.90
9987;DHT22;5033;46.310;11.214;2022-09-03T19:11:57;22.00;99.90
9987;DHT22;5033;46.310;11.214;2022-09-03T19:14:52;22.00;99.90
9987;DHT22;5033;46.310;11.214;2022-09-03T19:17:55;21.90;99.90
9987;DHT22;5033;46.310;11.214;2022-09-03T19:20:53;21.90;99.90
9987;DHT22;5033;46.310;11.214;2022-09-03T19:23:40;21.90;99.90
9987;DHT22;5033;46.310;11.214;2022-09-03T19:26:30;21.90;99.90
9987;DHT22;5033;46.310;11.214;2022-09-03T19:29:27;21.80;99.90
9987;DHT22;5033;46.310;11.214;2022-09-03T19:32:20;21.90;99.90
9987;DHT22;5033;46.310;11.214;2022-09-03T19:35:14;21.80;99.90
9987;DHT22;5033;46.310;11.214;2022-09-03T19:38:08;21.80;99.90
9987;DHT22;5033;46.310;11.214;2022-09-03T19:41:01;21.80;99.90
9987;DHT22;5033;46.310;11.214;2022-09-03T19:43:59;21.90;99.90
9987;DHT22;5033;46.310;11.214;2022-09-03T19:46:49;21.80;99.90
9987;DHT22;5033;46.310;11.214;2022-09-03T19:49:47;21.80;99.90
9987;DHT22;5033;46.310;11.214;2022-09-03T19:52:39;21.80;99.90
9987;DHT22;5033;46.310;11.214;2022-09-03T19:55:32;21.80;99.90
9987;DHT22;5033;46.310;11.214;2022-09-03T19:58:21;21.80;99.90
9987;DHT22;5033;46.310;11.214;2022-09-03T20:01:07;21.80;99.90
9987;DHT22;5033;46.310;11.214;2022-09-03T20:03:54;21.80;99.90
9987;DHT22;5033;46.310;11.214;2022-09-03T20:06:41;21.90;99.90
9987;DHT22;5033;46.310;11.214;2022-09-03T20:09:29;21.90;99.90
9987;DHT22;5033;46.310;11.214;2022-09-03T20:12:16;21.80;99.90
9987;DHT22;5033;46.310;11.214;2022-09-03T20:14:43;21.80;99.90
9987;DHT22;5033;46.310;11.214;2022-09-03T20:17:18;21.90;99.90
9987;DHT22;5033;46.310;11.214;2022-09-03T20:19:59;21.90;99.90
9987;DHT22;5033;46.310;11.214;2022-09-03T20:22:37;21.90;99.90
9987;DHT22;5033;46.310;11.214;2022-09-03T20:28:06;21.80;99.90
9987;DHT22;5033;46.310;11.214;2022-09-03T20:30:41;21.80;99.90
9987;DHT22;5033;46.310;11.214;2022-09-03T20:33:24;21.80;99.90
9987;DHT22;5033;46.310;11.214;2022-09-03T20:36:00;21.80;99.90
9987;DHT22;5033;46.310;11.214;2022-09-03T20:39:00;21.80;99.90
9987;DHT22;5033;46.310;11.214;2022-09-03T20:41:36;21.70;99.90
9987;DHT22;5033;46.310;11.214;2022-09-03T20:44:27;21.70;99.90
9987;DHT22;5033;46.310;11.214;2022-09-03T20:47:11;21.70;99.90
9987;DHT22;5033;46.310;11.214;2022-09-03T20:49:50;21.70;99.90
9987;DHT22;5033;46.310;11.214;2022-09-03T20:52:21;21.70;99.90
9987;DHT22;5033;46.310;11.214;2022-09-03T20:55:00;21.60;99.90
9987;DHT22;5033;46.310;11.214;2022-09-03T20:57:39;21.40;99.90
9987;DHT22;5033;46.310;11.214;2022-09-03T21:00:11;21.30;99.90
9987;DHT22;5033;46.310;11.214;2022-09-03T21:05:45;21.20;99.90